Terminal Aerodrome Forecast
Issued by NWS

Home | Current Version | Previous Version | Text Only | Print | Product List | Glossary On
Versions: 1 2 3 4 5 6 7 8 9 10 11 12 13 14 15 16 17 18 19 20 21 22
000
FTUS43 KIND 041133
TAFHUF
TAF
KHUF 041133Z 0412/0512 24012KT 6SM BR VCSH SCT020 OVC035
     FM041400 28013KT P6SM VCSH BKN020 OVC030
     FM041600 31014G23KT P6SM VCSH BKN020 OVC030
     FM041900 33015G24KT P6SM VCSH SCT025 BKN040
     FM050500 33010KT P6SM BKN035=

USA.gov is the U.S. government's official web portal to all federal, state and local government web resources and services.